Portada
METAR-TAF:

METAR-TAF

Aeroports :

Cochabamba, Bolívia

latitud: 17-25S, longitud: 066-11W, altitud: 2548 m

Observació

L'informe es va fer fa 1 hora i 13 minuts, a les 17:00 UTC
Vent 4 kt del Nord-Oest
Temperatura 23°C
Humitat 29%
Pressió 1024 hPa
Visibilitat 10 km o més

METAR: SLCB 171700Z 32004KT 9999 NSC 23/04 Q1024

Hora: 14:13 (18:13 UTC)

Pronòstic

L'informe es va fer fa 2 hores i 13 minuts, a les 16:00 UTC
Pronòstic vàlid del 17 a les 18 UTC al 18 a les 18 UTC
Vent 10 kt del Oest
Visibilitat 10 km o més
Evolucionant progressivament
l' 17 a les 22 UTC al 17 a les 24 UTC
Vent 10 kt del Sud-Est
Evolucionant progressivament
l' 18 a les 02 UTC al 18 a les 04 UTC
Vent kt del Nord

TAF: SLCB 171600Z 1718/1818 27010KT 9999 NSC TX25/1719Z TN05/1811Z BECMG 1722/1724 13010KT BECMG 1802/1804 00000KT

Observacions i pronòstics meteorològics de més de 4000 aeroports (METAR i TAF).

Les estacions disponibles són els punts grocs i vermells al mapa.

Posi el ratolí al punt desitjat per veure el nom de l'estació.

Feu clic per veure les observacions i els pronòstics meteorològics.

Per canviar el mapa: feu clic els botons verds amb una creu de color negre per apropar; al botó verd amb un guió per allunyar la imatge; o en les fletxes verdes per a mapes adjacents.


METAR-TAF: